Time;durP1;ratioP1;P1;durP2;ratioP2;P2;SDS_P1;SDS_P2;PMS_P1;PMS_P2;Temp;Humidity;BMP_temperature;BMP_pressure;BME280_temperature;BME280_humidity;BME280_pressure;Samples;Min_cycle;Max_cycle;Signal;HPM_P1;HPM_P2
2023/08/14 00:06:57;;;;;;;12.30;4.50;;;;;;;;;;106789;1267;551718;-83
2023/08/14 00:09:45;;;;;;;10.20;4.70;;;;;;;;;;104000;1288;546426;-75
2023/08/14 00:13:26;;;;;;;8.40;4.10;;;;;;;;;;104306;1286;544827;-77
2023/08/14 00:27:48;;;;;;;8.40;4.40;;;;;;;;;;106846;1257;549492;-84
2023/08/14 00:30:40;;;;;;;7.30;4.30;;;;;;;;;;103828;1288;545575;-75
2023/08/14 00:34:17;;;;;;;7.70;4.20;;;;;;;;;;103889;1289;545052;-77
2023/08/14 00:38:01;;;;;;;7.70;4.30;;;;;;;;;;103741;1291;547874;-78
2023/08/14 00:51:55;;;;;;;7.00;3.70;;;;;;;;;;104850;1282;549725;-79
2023/08/14 00:55:29;;;;;;;8.70;3.80;;;;;;;;;;104799;1282;545410;-83
2023/08/14 01:09:09;;;;;;;7.30;3.60;;;;;;;;;;106877;1264;549656;-83
2023/08/14 01:23:10;;;;;;;6.30;3.60;;;;;;;;;;106541;1267;550196;-83
2023/08/14 01:25:51;;;;;;;6.30;3.40;;;;;;;;;;104064;1292;545441;-78
2023/08/14 01:40:17;;;;;;;6.20;3.20;;;;;;;;;;106722;1266;553228;-81
2023/08/14 01:53:51;;;;;;;6.50;2.60;;;;;;;;;;104576;1285;553457;-84
2023/08/14 01:56:48;;;;;;;7.80;3.30;;;;;;;;;;103660;1291;547918;-81
2023/08/14 02:10:48;;;;;;;8.50;3.90;;;;;;;;;;104250;1288;554746;-82
2023/08/14 02:13:43;;;;;;;7.70;3.90;;;;;;;;;;103716;1294;544986;-74
2023/08/14 02:17:17;;;;;;;8.50;3.40;;;;;;;;;;104096;1289;544942;-82
2023/08/14 02:20:55;;;;;;;8.20;3.70;;;;;;;;;;103976;1289;544789;-83
2023/08/14 02:24:35;;;;;;;8.90;3.40;;;;;;;;;;103634;1294;545005;-76
2023/08/14 02:28:10;;;;;;;7.20;2.90;;;;;;;;;;103852;1292;545425;-77
2023/08/14 02:42:16;;;;;;;4.80;2.20;;;;;;;;;;104266;1288;553737;-85
2023/08/14 02:45:07;;;;;;;6.70;2.80;;;;;;;;;;103889;1289;544891;-84
2023/08/14 02:48:45;;;;;;;5.30;2.30;;;;;;;;;;104054;1292;545301;-82
2023/08/14 03:03:06;;;;;;;5.40;2.30;;;;;;;;;;107171;1260;553904;-80
2023/08/14 03:05:56;;;;;;;5.70;2.40;;;;;;;;;;103809;1289;545887;-83
2023/08/14 03:09:44;;;;;;;6.50;2.20;;;;;;;;;;103673;1292;546534;-79
2023/08/14 03:13:16;;;;;;;4.40;2.00;;;;;;;;;;104770;1289;544721;-75
2023/08/14 03:27:18;;;;;;;3.20;1.60;;;;;;;;;;105764;1285;549579;-75
2023/08/14 03:30:06;;;;;;;4.30;1.70;;;;;;;;;;104859;1292;544926;-77
2023/08/14 03:33:48;;;;;;;3.80;1.70;;;;;;;;;;104722;1289;545781;-81
2023/08/14 03:37:21;;;;;;;5.00;2.10;;;;;;;;;;104857;1287;545716;-74
2023/08/14 03:41:06;;;;;;;5.50;2.40;;;;;;;;;;104142;1297;548016;-74
2023/08/14 03:44:37;;;;;;;4.70;2.00;;;;;;;;;;103638;1292;544859;-76
2023/08/14 03:48:25;;;;;;;4.40;2.10;;;;;;;;;;103604;1292;548146;-75
2023/08/14 03:52:02;;;;;;;4.60;2.10;;;;;;;;;;103402;1294;546298;-78
2023/08/14 03:55:40;;;;;;;4.70;2.20;;;;;;;;;;103529;1295;547838;-76
2023/08/14 03:59:13;;;;;;;4.50;1.90;;;;;;;;;;103724;1292;547805;-80
2023/08/14 04:02:49;;;;;;;4.70;2.00;;;;;;;;;;103865;1292;545456;-75
2023/08/14 04:06:26;;;;;;;4.00;2.30;;;;;;;;;;103821;1292;545598;-86
2023/08/14 04:10:09;;;;;;;4.90;2.10;;;;;;;;;;103764;1292;547898;-80
2023/08/14 04:13:41;;;;;;;7.90;2.60;;;;;;;;;;103796;1291;545947;-76
2023/08/14 04:17:21;;;;;;;6.70;2.80;;;;;;;;;;103716;1295;547960;-82
2023/08/14 04:20:56;;;;;;;6.50;2.50;;;;;;;;;;103889;1291;545379;-85
2023/08/14 04:24:39;;;;;;;6.00;2.30;;;;;;;;;;103662;1291;546594;-84
2023/08/14 04:28:17;;;;;;;10.00;2.80;;;;;;;;;;103429;1298;548243;-84
2023/08/14 04:31:54;;;;;;;5.80;2.00;;;;;;;;;;103711;1292;548288;-75
2023/08/14 04:35:32;;;;;;;5.80;2.00;;;;;;;;;;103662;1289;547935;-79
2023/08/14 04:39:04;;;;;;;6.60;2.40;;;;;;;;;;104112;1289;545382;-76
2023/08/14 04:42:46;;;;;;;4.60;2.40;;;;;;;;;;103732;1291;548098;-81
2023/08/14 04:46:30;;;;;;;6.90;2.30;;;;;;;;;;103766;1291;545498;-87
2023/08/14 04:49:56;;;;;;;6.10;2.20;;;;;;;;;;103902;1288;544772;-85
2023/08/14 04:53:39;;;;;;;6.00;2.20;;;;;;;;;;103686;1293;548063;-76
2023/08/14 04:57:11;;;;;;;6.70;2.30;;;;;;;;;;103885;1291;545608;-80
2023/08/14 05:00:44;;;;;;;7.50;2.60;;;;;;;;;;103774;1291;544863;-77
2023/08/14 05:04:34;;;;;;;6.30;2.80;;;;;;;;;;103567;1291;548120;-81
2023/08/14 05:08:07;;;;;;;6.30;2.50;;;;;;;;;;103788;1288;545095;-76
2023/08/14 05:11:49;;;;;;;5.90;2.60;;;;;;;;;;103624;1302;548066;-75
2023/08/14 05:15:17;;;;;;;6.10;2.20;;;;;;;;;;103976;1289;544956;-74
2023/08/14 05:18:59;;;;;;;6.10;2.40;;;;;;;;;;103779;1289;545629;-75
2023/08/14 05:22:43;;;;;;;9.10;2.60;;;;;;;;;;103489;1292;547936;-76
2023/08/14 05:26:21;;;;;;;7.70;3.00;;;;;;;;;;103687;1290;547959;-81
2023/08/14 05:29:52;;;;;;;7.50;3.00;;;;;;;;;;103790;1291;546011;-86
2023/08/14 05:33:35;;;;;;;11.70;3.20;;;;;;;;;;103682;1289;546627;-75
2023/08/14 05:37:07;;;;;;;16.40;3.30;;;;;;;;;;103771;1289;545002;-82
2023/08/14 05:40:45;;;;;;;10.60;2.50;;;;;;;;;;104095;1289;544884;-76
2023/08/14 05:44:22;;;;;;;8.20;2.70;;;;;;;;;;103765;1292;545167;-81
2023/08/14 05:48:06;;;;;;;8.40;2.80;;;;;;;;;;103851;1288;548099;-74
2023/08/14 05:51:44;;;;;;;5.90;2.60;;;;;;;;;;103603;1292;547879;-75
2023/08/14 05:55:20;;;;;;;8.30;3.40;;;;;;;;;;103560;1291;548451;-80
2023/08/14 05:58:58;;;;;;;8.50;3.10;;;;;;;;;;103669;1291;548036;-77
2023/08/14 06:02:35;;;;;;;8.50;3.10;;;;;;;;;;103621;1291;547922;-80
2023/08/14 06:06:13;;;;;;;6.90;2.50;;;;;;;;;;103383;1295;549481;-85
2023/08/14 06:09:50;;;;;;;7.40;3.10;;;;;;;;;;103637;1289;548432;-77
2023/08/14 06:13:28;;;;;;;6.40;2.90;;;;;;;;;;103485;1292;548121;-76
2023/08/14 06:17:01;;;;;;;8.90;2.90;;;;;;;;;;103735;1299;544882;-79
2023/08/14 06:20:37;;;;;;;8.50;2.90;;;;;;;;;;103794;1292;545388;-76
2023/08/14 06:24:21;;;;;;;8.10;3.00;;;;;;;;;;103648;1294;547928;-83
2023/08/14 06:27:57;;;;;;;13.60;3.90;;;;;;;;;;103352;1294;546516;-77
2023/08/14 06:31:35;;;;;;;7.70;2.80;;;;;;;;;;103661;1290;548551;-78
2023/08/14 06:35:07;;;;;;;10.20;3.00;;;;;;;;;;103585;1295;545163;-74
2023/08/14 06:38:46;;;;;;;7.60;2.90;;;;;;;;;;104452;1283;548127;-75
2023/08/14 06:42:22;;;;;;;6.70;2.60;;;;;;;;;;103894;1291;544992;-79
2023/08/14 06:46:05;;;;;;;8.40;3.60;;;;;;;;;;103746;1290;548118;-76
2023/08/14 06:49:42;;;;;;;7.50;3.20;;;;;;;;;;103661;1292;547751;-80
2023/08/14 06:53:19;;;;;;;6.50;3.30;;;;;;;;;;103675;1292;547951;-76
2023/08/14 06:56:51;;;;;;;7.70;4.10;;;;;;;;;;103776;1289;544810;-81
2023/08/14 07:00:29;;;;;;;8.00;3.40;;;;;;;;;;104002;1288;544879;-80
2023/08/14 07:04:07;;;;;;;6.50;3.60;;;;;;;;;;104011;1288;545729;-76
2023/08/14 07:07:44;;;;;;;6.00;2.40;;;;;;;;;;103803;1291;545010;-82
2023/08/14 07:11:21;;;;;;;6.20;3.40;;;;;;;;;;103769;1289;544816;-80
2023/08/14 07:15:00;;;;;;;5.60;3.60;;;;;;;;;;103772;1291;545021;-74
2023/08/14 07:18:42;;;;;;;5.90;3.00;;;;;;;;;;103330;1293;548137;-74
2023/08/14 07:22:14;;;;;;;9.20;4.80;;;;;;;;;;103851;1289;544750;-79
2023/08/14 07:25:59;;;;;;;8.70;3.60;;;;;;;;;;103520;1291;548412;-73
2023/08/14 07:29:29;;;;;;;6.30;3.30;;;;;;;;;;103749;1290;545917;-79
2023/08/14 07:33:15;;;;;;;5.50;2.80;;;;;;;;;;103742;1291;544936;-74
2023/08/14 07:36:44;;;;;;;6.30;2.90;;;;;;;;;;103794;1292;544885;-76
2023/08/14 07:40:27;;;;;;;7.10;2.90;;;;;;;;;;103868;1294;546264;-76
2023/08/14 07:44:04;;;;;;;7.20;4.00;;;;;;;;;;103711;1292;548015;-74
2023/08/14 07:47:36;;;;;;;6.10;3.40;;;;;;;;;;103837;1291;546471;-74
2023/08/14 07:51:13;;;;;;;7.60;3.50;;;;;;;;;;103992;1294;544957;-74
2023/08/14 07:54:51;;;;;;;6.70;3.30;;;;;;;;;;103733;1292;544986;-79
2023/08/14 07:58:29;;;;;;;7.90;3.50;;;;;;;;;;103781;1291;544974;-74
2023/08/14 08:02:06;;;;;;;7.60;3.60;;;;;;;;;;103986;1289;545675;-77
2023/08/14 08:05:49;;;;;;;8.00;4.00;;;;;;;;;;103584;1295;548107;-78
2023/08/14 08:09:21;;;;;;;8.30;4.40;;;;;;;;;;103844;1291;545958;-74
2023/08/14 08:12:58;;;;;;;10.10;3.90;;;;;;;;;;103816;1291;544931;-79
2023/08/14 08:16:38;;;;;;;8.20;4.40;;;;;;;;;;103643;1292;548061;-76
2023/08/14 08:20:19;;;;;;;6.50;4.10;;;;;;;;;;103748;1288;548125;-76
2023/08/14 08:23:56;;;;;;;8.50;4.00;;;;;;;;;;103671;1292;547761;-79
2023/08/14 08:27:30;;;;;;;6.80;3.80;;;;;;;;;;103616;1289;547769;-76
2023/08/14 08:31:06;;;;;;;8.60;4.00;;;;;;;;;;103997;1291;544746;-77
2023/08/14 08:34:48;;;;;;;8.00;4.20;;;;;;;;;;103664;1291;547794;-76
2023/08/14 08:38:26;;;;;;;6.50;4.30;;;;;;;;;;103837;1292;548173;-79
2023/08/14 08:42:06;;;;;;;7.20;4.40;;;;;;;;;;103582;1295;546265;-78
2023/08/14 08:45:45;;;;;;;7.80;4.00;;;;;;;;;;104002;1285;547986;-77
2023/08/14 08:49:13;;;;;;;7.70;4.20;;;;;;;;;;103844;1293;544935;-75
2023/08/14 08:52:53;;;;;;;8.00;4.40;;;;;;;;;;103737;1288;548291;-80
2023/08/14 08:56:34;;;;;;;7.90;4.40;;;;;;;;;;103560;1292;547975;-78
2023/08/14 09:00:06;;;;;;;10.50;5.60;;;;;;;;;;103717;1292;544993;-76
2023/08/14 09:03:43;;;;;;;7.30;4.50;;;;;;;;;;103845;1288;544787;-77
2023/08/14 09:07:20;;;;;;;6.80;4.40;;;;;;;;;;103697;1290;544882;-77
2023/08/14 09:10:58;;;;;;;7.30;3.50;;;;;;;;;;103758;1292;545474;-77
2023/08/14 09:14:40;;;;;;;9.70;5.60;;;;;;;;;;103728;1291;544964;-76
2023/08/14 09:18:12;;;;;;;7.60;3.70;;;;;;;;;;103719;1290;544818;-77
2023/08/14 09:21:56;;;;;;;9.70;6.30;;;;;;;;;;103494;1293;546762;-76
2023/08/14 09:25:28;;;;;;;40.10;31.90;;;;;;;;;;103719;1289;545508;-75
2023/08/14 09:29:12;;;;;;;8.80;4.90;;;;;;;;;;103613;1292;547979;-75
2023/08/14 09:32:49;;;;;;;7.30;3.80;;;;;;;;;;103555;1291;546461;-77
2023/08/14 09:36:20;;;;;;;10.90;7.60;;;;;;;;;;103754;1293;545678;-78
2023/08/14 09:40:06;;;;;;;10.10;4.80;;;;;;;;;;103752;1289;548096;-79
2023/08/14 09:43:35;;;;;;;5.80;3.20;;;;;;;;;;104134;1285;545975;-79
2023/08/14 09:47:18;;;;;;;7.00;4.10;;;;;;;;;;103616;1294;546516;-76
2023/08/14 09:50:51;;;;;;;7.60;3.90;;;;;;;;;;103722;1289;545302;-78
2023/08/14 09:54:34;;;;;;;7.70;4.20;;;;;;;;;;103684;1291;545004;-76
2023/08/14 09:58:10;;;;;;;7.70;3.50;;;;;;;;;;103602;1294;545896;-75
2023/08/14 10:01:42;;;;;;;7.10;3.30;;;;;;;;;;104441;1282;545052;-75
2023/08/14 10:05:20;;;;;;;7.00;4.10;;;;;;;;;;103721;1292;544768;-77
2023/08/14 10:08:57;;;;;;;8.10;3.50;;;;;;;;;;103546;1298;545780;-76
2023/08/14 10:12:48;;;;;;;7.80;3.60;;;;;;;;;;103458;1291;547847;-76
2023/08/14 10:16:20;;;;;;;7.00;3.80;;;;;;;;;;103536;1295;545709;-75
2023/08/14 10:19:51;;;;;;;7.80;4.10;;;;;;;;;;103750;1292;544963;-76
2023/08/14 10:23:27;;;;;;;7.00;3.10;;;;;;;;;;103662;1293;545111;-74
2023/08/14 10:27:13;;;;;;;6.90;3.40;;;;;;;;;;103677;1290;547909;-76
2023/08/14 10:30:43;;;;;;;6.70;3.80;;;;;;;;;;103865;1292;544776;-76
2023/08/14 10:34:20;;;;;;;5.90;3.20;;;;;;;;;;103911;1289;544719;-76
2023/08/14 10:38:03;;;;;;;7.60;3.10;;;;;;;;;;104338;1282;546497;-76
2023/08/14 10:41:40;;;;;;;7.80;3.70;;;;;;;;;;103706;1291;547821;-76
2023/08/14 10:45:14;;;;;;;6.60;3.80;;;;;;;;;;103762;1292;544999;-76
2023/08/14 10:48:55;;;;;;;7.30;4.30;;;;;;;;;;104078;1286;548079;-75
2023/08/14 10:52:29;;;;;;;8.90;3.50;;;;;;;;;;103740;1291;545192;-76
2023/08/14 10:56:00;;;;;;;6.00;3.50;;;;;;;;;;103812;1289;544764;-77
2023/08/14 10:59:56;;;;;;;11.50;5.70;;;;;;;;;;103651;1292;547919;-75
2023/08/14 11:03:27;;;;;;;6.60;3.00;;;;;;;;;;103449;1292;546132;-76
2023/08/14 11:07:08;;;;;;;6.80;3.60;;;;;;;;;;103569;1292;546678;-77
2023/08/14 11:10:42;;;;;;;6.60;3.40;;;;;;;;;;103313;1298;548220;-78
2023/08/14 11:14:13;;;;;;;7.10;3.60;;;;;;;;;;103770;1292;545040;-75
2023/08/14 11:17:50;;;;;;;9.40;3.30;;;;;;;;;;104355;1287;544985;-75
2023/08/14 11:21:28;;;;;;;7.20;3.60;;;;;;;;;;103801;1290;545165;-76
2023/08/14 11:25:15;;;;;;;8.00;3.40;;;;;;;;;;103422;1292;547876;-76
2023/08/14 11:28:48;;;;;;;6.20;3.20;;;;;;;;;;103624;1290;547768;-75
2023/08/14 11:32:20;;;;;;;7.50;3.20;;;;;;;;;;103823;1292;544810;-77
2023/08/14 11:35:57;;;;;;;5.80;3.10;;;;;;;;;;103720;1292;545620;-75
2023/08/14 11:39:42;;;;;;;8.10;3.50;;;;;;;;;;103574;1291;548656;-77
2023/08/14 11:43:09;;;;;;;7.70;3.20;;;;;;;;;;103825;1292;544694;-75
2023/08/14 11:46:48;;;;;;;6.00;3.90;;;;;;;;;;104030;1297;544950;-77
2023/08/14 11:50:35;;;;;;;7.90;4.10;;;;;;;;;;103338;1295;545829;-77
2023/08/14 11:54:08;;;;;;;8.40;4.30;;;;;;;;;;103961;1290;545525;-76
2023/08/14 11:57:43;;;;;;;8.10;4.20;;;;;;;;;;103737;1292;545956;-75
2023/08/14 12:01:27;;;;;;;7.70;3.50;;;;;;;;;;103587;1293;548032;-76
2023/08/14 12:05:00;;;;;;;13.20;4.50;;;;;;;;;;103765;1295;545039;-76
2023/08/14 12:08:49;;;;;;;8.00;3.90;;;;;;;;;;103573;1290;547771;-77
2023/08/14 12:12:26;;;;;;;6.50;4.20;;;;;;;;;;103576;1290;545918;-77
2023/08/14 12:16:03;;;;;;;7.80;3.60;;;;;;;;;;104003;1289;544822;-76
2023/08/14 12:19:35;;;;;;;8.00;4.20;;;;;;;;;;103948;1292;545420;-76
2023/08/14 12:23:12;;;;;;;7.40;4.00;;;;;;;;;;103761;1292;544794;-75
2023/08/14 12:26:50;;;;;;;7.50;4.60;;;;;;;;;;103675;1295;545045;-78
2023/08/14 12:30:33;;;;;;;8.30;4.80;;;;;;;;;;103609;1298;545680;-77
2023/08/14 12:34:06;;;;;;;6.50;4.00;;;;;;;;;;103945;1292;545599;-76
2023/08/14 12:37:44;;;;;;;6.90;4.00;;;;;;;;;;103972;1289;546052;-77
2023/08/14 12:41:24;;;;;;;9.90;5.20;;;;;;;;;;103982;1289;544842;-75
2023/08/14 12:45:06;;;;;;;8.10;5.30;;;;;;;;;;103943;1289;545146;-74
2023/08/14 12:48:46;;;;;;;8.10;4.70;;;;;;;;;;104540;1282;547966;-76
2023/08/14 12:52:27;;;;;;;8.00;4.90;;;;;;;;;;104005;1285;546152;-75
2023/08/14 12:55:58;;;;;;;9.10;4.60;;;;;;;;;;104037;1289;545173;-76
2023/08/14 12:59:36;;;;;;;6.90;4.00;;;;;;;;;;103718;1292;545369;-76
2023/08/14 13:03:10;;;;;;;6.90;4.50;;;;;;;;;;103708;1289;545056;-76
2023/08/14 13:06:52;;;;;;;8.90;4.70;;;;;;;;;;103966;1292;545475;-77
2023/08/14 13:10:29;;;;;;;7.50;4.30;;;;;;;;;;103794;1289;544793;-75
2023/08/14 13:14:07;;;;;;;8.60;5.00;;;;;;;;;;103735;1289;544799;-76
2023/08/14 13:17:50;;;;;;;7.20;4.50;;;;;;;;;;103599;1292;546158;-77
2023/08/14 13:21:24;;;;;;;9.00;4.40;;;;;;;;;;103652;1291;548005;-75
2023/08/14 13:24:59;;;;;;;7.30;4.80;;;;;;;;;;103720;1291;544725;-78
2023/08/14 13:28:37;;;;;;;7.80;4.50;;;;;;;;;;103819;1292;544720;-82
2023/08/14 13:32:14;;;;;;;6.90;4.10;;;;;;;;;;104036;1291;544720;-77
2023/08/14 13:35:57;;;;;;;6.90;4.40;;;;;;;;;;103679;1292;547772;-77
2023/08/14 13:39:35;;;;;;;6.00;4.00;;;;;;;;;;103707;1292;545946;-79
2023/08/14 13:43:09;;;;;;;6.70;4.10;;;;;;;;;;103689;1292;546003;-77
2023/08/14 13:46:50;;;;;;;9.00;3.70;;;;;;;;;;104278;1289;546096;-79
2023/08/14 13:50:22;;;;;;;8.00;3.80;;;;;;;;;;104260;1294;544883;-77
2023/08/14 13:54:05;;;;;;;7.90;3.90;;;;;;;;;;104524;1292;548337;-77
2023/08/14 13:57:33;;;;;;;10.10;4.80;;;;;;;;;;104450;1291;544786;-77
2023/08/14 14:01:15;;;;;;;8.30;4.70;;;;;;;;;;104591;1289;545440;-78
2023/08/14 14:04:48;;;;;;;6.50;4.40;;;;;;;;;;104682;1295;545457;-77
2023/08/14 14:08:26;;;;;;;8.10;3.90;;;;;;;;;;104402;1292;546163;-76
2023/08/14 14:12:14;;;;;;;6.40;3.70;;;;;;;;;;104059;1291;547874;-77
2023/08/14 14:15:46;;;;;;;9.20;4.50;;;;;;;;;;103828;1289;544845;-77
2023/08/14 14:19:29;;;;;;;7.30;4.20;;;;;;;;;;103620;1292;547943;-76
2023/08/14 14:23:01;;;;;;;7.80;3.80;;;;;;;;;;103869;1292;544749;-77
2023/08/14 14:26:38;;;;;;;7.70;4.60;;;;;;;;;;103994;1291;544950;-77
2023/08/14 14:30:16;;;;;;;7.60;3.80;;;;;;;;;;103783;1290;545077;-79
2023/08/14 14:33:49;;;;;;;7.50;4.40;;;;;;;;;;103880;1292;544918;-78
2023/08/14 14:37:37;;;;;;;7.80;4.10;;;;;;;;;;103686;1291;548104;-77
2023/08/14 14:41:05;;;;;;;8.10;3.90;;;;;;;;;;103903;1289;545073;-77
2023/08/14 14:44:50;;;;;;;6.50;4.00;;;;;;;;;;103623;1295;547803;-76
2023/08/14 14:48:30;;;;;;;8.20;4.30;;;;;;;;;;103655;1292;548017;-77
2023/08/14 14:52:02;;;;;;;7.90;4.60;;;;;;;;;;103524;1295;545713;-77
2023/08/14 14:55:40;;;;;;;8.70;4.70;;;;;;;;;;104007;1289;544763;-76
2023/08/14 14:59:23;;;;;;;7.90;4.90;;;;;;;;;;103452;1294;548037;-76
2023/08/14 15:02:55;;;;;;;7.80;4.50;;;;;;;;;;103525;1295;545482;-77
2023/08/14 15:06:28;;;;;;;6.50;4.10;;;;;;;;;;104589;1282;544928;-76
2023/08/14 15:10:15;;;;;;;7.10;4.70;;;;;;;;;;103605;1291;549078;-77
2023/08/14 15:13:53;;;;;;;8.30;4.50;;;;;;;;;;103654;1291;547830;-77
2023/08/14 15:17:33;;;;;;;6.40;4.20;;;;;;;;;;103785;1288;548134;-76
2023/08/14 15:20:58;;;;;;;7.60;4.00;;;;;;;;;;103786;1290;544780;-75
2023/08/14 15:24:40;;;;;;;7.80;4.40;;;;;;;;;;104430;1285;544960;-75
2023/08/14 15:28:23;;;;;;;8.70;4.70;;;;;;;;;;103647;1293;548533;-76
2023/08/14 15:31:51;;;;;;;7.10;4.50;;;;;;;;;;103781;1291;545637;-79
2023/08/14 15:35:30;;;;;;;6.60;4.50;;;;;;;;;;103903;1289;544992;-77
2023/08/14 15:39:12;;;;;;;8.60;4.80;;;;;;;;;;103829;1290;544826;-76
2023/08/14 15:42:49;;;;;;;8.10;4.30;;;;;;;;;;103797;1289;545031;-75
2023/08/14 15:46:32;;;;;;;7.60;4.40;;;;;;;;;;103577;1303;546136;-77
2023/08/14 15:50:10;;;;;;;7.90;4.50;;;;;;;;;;103668;1289;548316;-77
2023/08/14 15:53:41;;;;;;;9.00;4.80;;;;;;;;;;103739;1289;545403;-78
2023/08/14 15:57:25;;;;;;;7.80;5.00;;;;;;;;;;103540;1292;547994;-76
2023/08/14 16:01:02;;;;;;;7.90;4.40;;;;;;;;;;103498;1291;548284;-77
2023/08/14 16:04:35;;;;;;;10.40;4.90;;;;;;;;;;103894;1289;545950;-78
2023/08/14 16:08:11;;;;;;;7.60;4.90;;;;;;;;;;104619;1288;545267;-78
2023/08/14 16:11:45;;;;;;;10.20;4.60;;;;;;;;;;103615;1295;545342;-78
2023/08/14 16:15:29;;;;;;;8.10;4.20;;;;;;;;;;103456;1294;548478;-75
2023/08/14 16:19:06;;;;;;;10.90;4.40;;;;;;;;;;103581;1292;547929;-80
2023/08/14 16:22:42;;;;;;;8.30;4.20;;;;;;;;;;104125;1286;545909;-74
2023/08/14 16:26:25;;;;;;;31.90;22.30;;;;;;;;;;103575;1292;548079;-78
2023/08/14 16:29:53;;;;;;;26.20;17.00;;;;;;;;;;103770;1291;544969;-77
2023/08/14 16:33:40;;;;;;;17.90;11.40;;;;;;;;;;103729;1288;545959;-76
2023/08/14 16:37:18;;;;;;;14.50;8.40;;;;;;;;;;103519;1291;545801;-76
2023/08/14 16:40:49;;;;;;;9.50;5.00;;;;;;;;;;103703;1289;544958;-77
2023/08/14 16:44:23;;;;;;;7.70;4.20;;;;;;;;;;103524;1295;545059;-78
2023/08/14 16:48:05;;;;;;;8.10;4.40;;;;;;;;;;104240;1289;544919;-75
2023/08/14 16:51:43;;;;;;;10.00;4.40;;;;;;;;;;104187;1289;544817;-76
2023/08/14 16:55:20;;;;;;;15.80;9.20;;;;;;;;;;103970;1289;544957;-77
2023/08/14 16:59:04;;;;;;;11.00;6.00;;;;;;;;;;103680;1288;545248;-78
2023/08/14 17:02:41;;;;;;;8.30;3.90;;;;;;;;;;103526;1290;548089;-78
2023/08/14 17:06:18;;;;;;;9.40;4.20;;;;;;;;;;103431;1295;546071;-76
2023/08/14 17:09:55;;;;;;;8.00;4.40;;;;;;;;;;103643;1295;547816;-76
2023/08/14 17:13:28;;;;;;;9.00;5.10;;;;;;;;;;103823;1290;544892;-75
2023/08/14 17:17:10;;;;;;;9.30;4.80;;;;;;;;;;103578;1289;547889;-77
2023/08/14 17:20:48;;;;;;;9.80;5.00;;;;;;;;;;103653;1289;547980;-74
2023/08/14 17:24:20;;;;;;;8.60;4.40;;;;;;;;;;103508;1294;544926;-76
2023/08/14 17:27:53;;;;;;;10.30;4.80;;;;;;;;;;103683;1295;544784;-78
2023/08/14 17:31:35;;;;;;;10.30;4.10;;;;;;;;;;103758;1289;545428;-77
2023/08/14 17:35:13;;;;;;;10.50;4.80;;;;;;;;;;103583;1295;545058;-81
2023/08/14 17:38:50;;;;;;;8.30;4.70;;;;;;;;;;103767;1291;545688;-75
2023/08/14 17:42:24;;;;;;;8.80;4.70;;;;;;;;;;103759;1292;545040;-74
2023/08/14 17:46:11;;;;;;;10.00;5.00;;;;;;;;;;103617;1296;546484;-80
2023/08/14 17:49:43;;;;;;;8.80;5.10;;;;;;;;;;103903;1288;544975;-77
2023/08/14 17:53:21;;;;;;;10.10;5.00;;;;;;;;;;103861;1292;545071;-80
2023/08/14 17:56:58;;;;;;;7.10;4.80;;;;;;;;;;103743;1289;545074;-80
2023/08/14 18:00:32;;;;;;;9.10;5.00;;;;;;;;;;103840;1291;545820;-80
2023/08/14 18:04:14;;;;;;;10.40;4.80;;;;;;;;;;103862;1292;544738;-78
2023/08/14 18:07:52;;;;;;;9.80;5.10;;;;;;;;;;103819;1289;544949;-81
2023/08/14 18:11:32;;;;;;;8.60;4.80;;;;;;;;;;103614;1292;548116;-81
2023/08/14 18:15:09;;;;;;;11.50;4.90;;;;;;;;;;103537;1295;548193;-81
2023/08/14 18:18:53;;;;;;;8.70;4.40;;;;;;;;;;103476;1292;548091;-77
2023/08/14 18:22:27;;;;;;;8.90;4.70;;;;;;;;;;103664;1290;548222;-75
2023/08/14 18:25:59;;;;;;;9.60;4.80;;;;;;;;;;103747;1291;545397;-79
2023/08/14 18:29:37;;;;;;;9.70;5.00;;;;;;;;;;103872;1291;545145;-74
2023/08/14 18:33:20;;;;;;;21.60;13.00;;;;;;;;;;103658;1290;547937;-74
2023/08/14 18:36:57;;;;;;;54.00;37.60;;;;;;;;;;104421;1283;547975;-74
2023/08/14 18:40:35;;;;;;;67.40;44.80;;;;;;;;;;103707;1300;548160;-81
2023/08/14 18:44:12;;;;;;;35.20;22.80;;;;;;;;;;103350;1292;548356;-77
2023/08/14 18:47:50;;;;;;;16.00;8.60;;;;;;;;;;103482;1298;547966;-78
2023/08/14 18:51:27;;;;;;;13.70;6.80;;;;;;;;;;103627;1290;548060;-76
2023/08/14 18:55:05;;;;;;;10.00;5.20;;;;;;;;;;103415;1292;547909;-77
2023/08/14 18:58:43;;;;;;;9.20;4.90;;;;;;;;;;103621;1294;548142;-78
2023/08/14 19:02:19;;;;;;;18.20;9.60;;;;;;;;;;103790;1292;547772;-76
2023/08/14 19:05:54;;;;;;;16.90;13.20;;;;;;;;;;103762;1289;544781;-80
2023/08/14 19:09:35;;;;;;;18.50;15.40;;;;;;;;;;104033;1285;549172;-79
2023/08/14 19:13:06;;;;;;;16.10;7.50;;;;;;;;;;103810;1292;545261;-76
2023/08/14 19:16:50;;;;;;;12.10;6.40;;;;;;;;;;104178;1283;547835;-75
2023/08/14 19:20:21;;;;;;;9.40;5.80;;;;;;;;;;103679;1289;545127;-76
2023/08/14 19:23:59;;;;;;;9.90;5.70;;;;;;;;;;104015;1292;545167;-78
2023/08/14 19:27:42;;;;;;;14.00;6.20;;;;;;;;;;103758;1288;546146;-81
2023/08/14 19:31:10;;;;;;;11.70;5.50;;;;;;;;;;103539;1294;544988;-74
2023/08/14 19:34:52;;;;;;;11.70;6.10;;;;;;;;;;103797;1293;545181;-78
2023/08/14 19:38:35;;;;;;;13.00;5.80;;;;;;;;;;103508;1292;548081;-76
2023/08/14 19:42:08;;;;;;;10.50;5.70;;;;;;;;;;103775;1289;544779;-80
2023/08/14 19:45:53;;;;;;;14.60;7.10;;;;;;;;;;103800;1289;546094;-83
2023/08/14 19:49:21;;;;;;;11.80;6.60;;;;;;;;;;103927;1288;545673;-78
2023/08/14 19:53:05;;;;;;;13.00;6.90;;;;;;;;;;103583;1292;547884;-75
2023/08/14 19:56:36;;;;;;;9.20;6.10;;;;;;;;;;103823;1291;544940;-80
2023/08/14 20:00:16;;;;;;;14.50;6.30;;;;;;;;;;103419;1292;548070;-74
2023/08/14 20:03:51;;;;;;;13.50;6.20;;;;;;;;;;103803;1292;545006;-75
2023/08/14 20:07:35;;;;;;;13.30;5.70;;;;;;;;;;103463;1291;548276;-76
2023/08/14 20:11:12;;;;;;;13.90;5.80;;;;;;;;;;103803;1289;547790;-78
2023/08/14 20:14:49;;;;;;;11.30;5.40;;;;;;;;;;103654;1292;548462;-74
2023/08/14 20:18:29;;;;;;;11.40;5.10;;;;;;;;;;103317;1294;546251;-78
2023/08/14 20:22:02;;;;;;;10.10;5.30;;;;;;;;;;103564;1291;548096;-80
2023/08/14 20:25:41;;;;;;;12.20;5.30;;;;;;;;;;103741;1290;548172;-76
2023/08/14 20:29:19;;;;;;;10.00;5.40;;;;;;;;;;103311;1294;545995;-76
2023/08/14 20:32:57;;;;;;;12.80;5.90;;;;;;;;;;103491;1292;548177;-76
2023/08/14 20:36:31;;;;;;;10.10;5.10;;;;;;;;;;103979;1287;547971;-75
2023/08/14 20:40:02;;;;;;;9.70;5.30;;;;;;;;;;104033;1288;545656;-77
2023/08/14 20:43:45;;;;;;;10.10;5.50;;;;;;;;;;105588;1293;545967;-80
2023/08/14 20:47:18;;;;;;;11.20;5.50;;;;;;;;;;103970;1289;545147;-78
2023/08/14 20:51:00;;;;;;;13.20;5.80;;;;;;;;;;103815;1289;545340;-74
2023/08/14 20:54:43;;;;;;;9.80;5.80;;;;;;;;;;103730;1288;548019;-80
2023/08/14 20:58:21;;;;;;;13.10;5.70;;;;;;;;;;103280;1294;547921;-75
2023/08/14 21:01:54;;;;;;;11.00;5.50;;;;;;;;;;103748;1292;544975;-74
2023/08/14 21:05:32;;;;;;;12.60;5.80;;;;;;;;;;103549;1292;547931;-82
2023/08/14 21:09:09;;;;;;;11.10;5.30;;;;;;;;;;103650;1294;547875;-82
2023/08/14 21:12:45;;;;;;;23.00;11.70;;;;;;;;;;103909;1292;544806;-78
2023/08/14 21:16:24;;;;;;;11.40;7.10;;;;;;;;;;103626;1292;548187;-82
2023/08/14 21:20:05;;;;;;;12.30;6.30;;;;;;;;;;103603;1291;548169;-82
2023/08/14 21:23:43;;;;;;;11.70;5.70;;;;;;;;;;103701;1289;547764;-75
2023/08/14 21:27:16;;;;;;;10.50;5.80;;;;;;;;;;103649;1291;545692;-80
2023/08/14 21:30:58;;;;;;;7.50;4.70;;;;;;;;;;103627;1293;546070;-75
2023/08/14 21:34:27;;;;;;;10.90;5.20;;;;;;;;;;103641;1291;545325;-81
2023/08/14 21:38:15;;;;;;;10.50;4.90;;;;;;;;;;103687;1292;547876;-76
2023/08/14 21:41:52;;;;;;;9.80;4.50;;;;;;;;;;103559;1292;545410;-79
2023/08/14 21:45:24;;;;;;;10.60;4.80;;;;;;;;;;103992;1291;544866;-77
2023/08/14 21:49:07;;;;;;;9.50;4.40;;;;;;;;;;103601;1294;546049;-77
2023/08/14 21:52:45;;;;;;;7.80;4.50;;;;;;;;;;103567;1296;548023;-80
2023/08/14 21:56:22;;;;;;;7.80;4.10;;;;;;;;;;103317;1294;547848;-81
2023/08/14 21:59:59;;;;;;;11.10;4.60;;;;;;;;;;103584;1301;547801;-81
2023/08/14 22:03:37;;;;;;;9.00;4.40;;;;;;;;;;103510;1292;548417;-76
2023/08/14 22:07:14;;;;;;;10.60;4.30;;;;;;;;;;103531;1291;548117;-81
2023/08/14 22:10:52;;;;;;;8.40;3.60;;;;;;;;;;103452;1296;547869;-78
2023/08/14 22:14:26;;;;;;;7.60;3.80;;;;;;;;;;103820;1290;545404;-77
2023/08/14 22:18:07;;;;;;;9.20;3.90;;;;;;;;;;103261;1300;547957;-77
2023/08/14 22:21:35;;;;;;;7.40;3.20;;;;;;;;;;103821;1296;545538;-75
2023/08/14 22:25:22;;;;;;;8.50;3.70;;;;;;;;;;103688;1292;547967;-80
2023/08/14 22:29:00;;;;;;;7.40;3.80;;;;;;;;;;103662;1292;546304;-80
2023/08/14 22:32:34;;;;;;;8.40;3.60;;;;;;;;;;103538;1292;547949;-82
2023/08/14 22:36:09;;;;;;;7.60;3.90;;;;;;;;;;105019;1292;544990;-83
2023/08/14 22:39:47;;;;;;;8.80;4.00;;;;;;;;;;103787;1292;546325;-82
2023/08/14 22:43:20;;;;;;;8.10;3.40;;;;;;;;;;103842;1290;544749;-80